createdAt,value
2022-11-27T00:01:19.872Z,4.99
2022-11-27T00:04:21.959Z,4.89
2022-11-27T00:07:24.010Z,4.86
2022-11-27T00:10:26.003Z,4.89
2022-11-27T00:13:27.952Z,4.91
2022-11-27T00:16:32.512Z,4.83
2022-11-27T00:19:34.415Z,4.79
2022-11-27T00:22:37.695Z,4.72
2022-11-27T00:25:39.718Z,4.67
2022-11-27T00:28:41.629Z,4.65
2022-11-27T00:31:43.581Z,4.62
2022-11-27T00:34:46.156Z,4.59
2022-11-27T00:37:48.147Z,4.55
2022-11-27T00:40:50.248Z,4.54
2022-11-27T00:43:52.629Z,4.50
2022-11-27T00:46:54.462Z,4.49
2022-11-27T00:49:56.542Z,4.40
2022-11-27T00:52:59.748Z,4.40
2022-11-27T00:56:02.210Z,4.34
2022-11-27T00:59:06.385Z,4.33
2022-11-27T01:02:08.194Z,4.23
2022-11-27T01:05:10.343Z,4.33
2022-11-27T01:08:12.147Z,4.38
2022-11-27T01:11:16.353Z,4.42
2022-11-27T01:14:19.061Z,4.41
2022-11-27T01:17:21.052Z,4.43
2022-11-27T01:20:23.331Z,4.42
2022-11-27T01:23:25.418Z,4.41
2022-11-27T01:26:27.689Z,4.42
2022-11-27T01:29:29.481Z,4.51
2022-11-27T01:32:31.257Z,4.59
2022-11-27T01:35:33.859Z,4.66
2022-11-27T01:38:36.333Z,4.71
2022-11-27T01:41:41.367Z,4.74
2022-11-27T01:44:49.383Z,4.72
2022-11-27T01:47:57.097Z,4.69
2022-11-27T01:50:59.061Z,4.64
2022-11-27T01:54:01.030Z,4.63
2022-11-27T01:57:07.679Z,4.56
2022-11-27T02:00:14.187Z,4.44
2022-11-27T02:03:16.510Z,4.38
2022-11-27T02:06:18.334Z,4.29
2022-11-27T02:09:20.239Z,4.20
2022-11-27T02:12:42.222Z,4.16
2022-11-27T02:15:50.316Z,4.07
2022-11-27T02:19:15.469Z,4.07
2022-11-27T02:22:23.913Z,3.95
2022-11-27T02:26:03.190Z,3.94
2022-11-27T02:29:10.119Z,3.92
2022-11-27T02:32:19.069Z,3.86
2022-11-27T02:35:33.838Z,3.86
2022-11-27T02:38:46.551Z,3.84
2022-11-27T02:41:52.969Z,3.86
2022-11-27T02:45:01.992Z,3.85
2022-11-27T02:48:05.093Z,3.84
2022-11-27T02:51:10.086Z,3.86
2022-11-27T02:54:15.942Z,3.85
2022-11-27T02:57:20.261Z,3.85
2022-11-27T03:00:22.451Z,3.89
2022-11-27T03:03:34.672Z,3.94
2022-11-27T03:06:56.315Z,3.95
2022-11-27T03:10:02.374Z,3.96
2022-11-27T03:13:04.162Z,3.98
2022-11-27T03:16:13.350Z,4.04
2022-11-27T03:19:18.480Z,4.05
2022-11-27T03:22:20.485Z,4.08
2022-11-27T03:25:23.663Z,4.04
2022-11-27T03:28:25.417Z,4.09
2022-11-27T03:31:27.477Z,4.15
2022-11-27T03:34:29.421Z,4.19
2022-11-27T03:37:33.325Z,4.14
2022-11-27T03:41:07.839Z,4.19
2022-11-27T03:44:38.142Z,4.29
2022-11-27T03:47:55.022Z,4.38
2022-11-27T03:51:26.426Z,4.36
2022-11-27T03:54:50.137Z,4.38
2022-11-27T03:58:00.684Z,4.39
2022-11-27T04:01:04.427Z,4.40
2022-11-27T04:04:06.840Z,4.44
2022-11-27T04:07:15.175Z,4.46
2022-11-27T04:10:17.145Z,4.43
2022-11-27T04:13:19.006Z,4.45
2022-11-27T04:16:21.197Z,4.42
2022-11-27T04:19:23.004Z,4.38
2022-11-27T04:22:24.903Z,4.40
2022-11-27T04:25:26.932Z,4.39
2022-11-27T04:28:28.662Z,4.38
2022-11-27T04:31:30.415Z,4.34
2022-11-27T04:34:32.801Z,4.34
2022-11-27T04:37:34.637Z,4.30
2022-11-27T04:40:36.624Z,4.31
2022-11-27T04:43:39.561Z,4.27
2022-11-27T04:46:41.476Z,4.23
2022-11-27T04:49:43.597Z,4.23
2022-11-27T04:52:45.278Z,4.30
2022-11-27T04:55:47.348Z,4.36
2022-11-27T04:58:49.235Z,4.43
2022-11-27T05:01:51.009Z,4.44
2022-11-27T05:04:53.516Z,4.50
2022-11-27T05:07:55.865Z,4.49
2022-11-27T05:11:05.510Z,4.51
2022-11-27T05:14:18.839Z,4.62
2022-11-27T05:17:21.498Z,4.56
2022-11-27T05:20:23.982Z,4.60
2022-11-27T05:23:28.298Z,4.65
2022-11-27T05:26:32.849Z,4.61
2022-11-27T05:29:34.733Z,4.60
2022-11-27T05:32:39.448Z,4.61
2022-11-27T05:35:49.383Z,4.51
2022-11-27T05:38:54.407Z,4.61
2022-11-27T05:41:57.379Z,4.53
2022-11-27T05:45:00.025Z,4.59
2022-11-27T05:48:02.958Z,4.58
2022-11-27T05:51:05.704Z,4.57
2022-11-27T05:54:07.995Z,4.55
2022-11-27T05:57:12.566Z,4.45
2022-11-27T06:00:15.000Z,4.40
2022-11-27T06:03:20.066Z,4.31
2022-11-27T06:06:22.302Z,4.27
2022-11-27T06:09:24.166Z,4.25
2022-11-27T06:12:25.993Z,4.18
2022-11-27T06:15:28.331Z,4.09
2022-11-27T06:18:30.365Z,3.96
2022-11-27T06:21:32.269Z,3.78
2022-11-27T06:24:35.673Z,3.70
2022-11-27T06:27:37.740Z,3.60
2022-11-27T06:30:39.873Z,3.50
2022-11-27T06:33:42.531Z,3.60
2022-11-27T06:36:44.452Z,3.70
2022-11-27T06:39:49.200Z,3.60
2022-11-27T06:42:51.748Z,3.49
2022-11-27T06:45:59.108Z,3.65
2022-11-27T06:49:01.178Z,3.73
2022-11-27T06:52:03.500Z,3.77
2022-11-27T06:55:05.608Z,3.97
2022-11-27T06:58:07.482Z,4.09
2022-11-27T07:01:13.329Z,4.25
2022-11-27T07:04:16.215Z,4.39
2022-11-27T07:07:18.168Z,4.53
2022-11-27T07:10:20.151Z,4.57
2022-11-27T07:13:21.833Z,4.74
2022-11-27T07:16:24.401Z,4.99
2022-11-27T07:19:26.745Z,5.13
2022-11-27T07:22:28.869Z,5.33
2022-11-27T07:25:30.725Z,5.42
2022-11-27T07:28:32.578Z,5.29
2022-11-27T07:31:34.600Z,5.19
2022-11-27T07:34:36.548Z,5.25
2022-11-27T07:37:39.619Z,5.21
2022-11-27T07:40:41.471Z,5.20
2022-11-27T07:43:44.371Z,5.31
2022-11-27T07:46:46.237Z,5.49
2022-11-27T07:49:48.136Z,5.56
2022-11-27T07:52:50.038Z,5.64
2022-11-27T07:55:52.530Z,5.69
2022-11-27T07:58:54.869Z,5.72
2022-11-27T08:01:57.005Z,5.38
2022-11-27T08:04:58.853Z,5.37
2022-11-27T08:08:01.691Z,5.35
2022-11-27T08:11:03.591Z,5.29
2022-11-27T08:14:07.025Z,5.28
2022-11-27T08:17:12.057Z,5.59
2022-11-27T08:20:13.810Z,5.62
2022-11-27T08:23:15.740Z,5.57
2022-11-27T08:26:17.566Z,5.58
2022-11-27T08:29:19.363Z,5.71
2022-11-27T08:32:21.298Z,5.74
2022-11-27T08:35:23.336Z,5.70
2022-11-27T08:38:25.843Z,5.70
2022-11-27T08:41:30.666Z,6.06
2022-11-27T08:44:32.786Z,6.14
2022-11-27T08:47:34.856Z,6.13
2022-11-27T08:50:38.175Z,6.01
2022-11-27T08:53:40.186Z,5.99
2022-11-27T08:56:44.568Z,6.01
2022-11-27T08:59:46.553Z,5.98
2022-11-27T09:02:48.409Z,5.92
2022-11-27T09:05:50.297Z,5.99
2022-11-27T09:08:52.286Z,6.15
2022-11-27T09:11:55.032Z,6.28
2022-11-27T09:14:57.345Z,6.31
2022-11-27T09:17:59.901Z,6.45
2022-11-27T09:21:07.026Z,6.62
2022-11-27T09:24:09.509Z,6.68
2022-11-27T09:27:11.417Z,6.75
2022-11-27T09:30:13.676Z,6.86
2022-11-27T09:33:15.612Z,6.91
2022-11-27T09:36:22.922Z,6.95
2022-11-27T09:39:27.053Z,6.88
2022-11-27T09:42:39.988Z,6.88
2022-11-27T09:45:49.189Z,6.91
2022-11-27T09:48:51.455Z,6.89
2022-11-27T09:51:53.552Z,6.92
2022-11-27T09:55:18.806Z,6.80
2022-11-27T09:58:36.371Z,6.89
2022-11-27T10:01:45.262Z,7.12
2022-11-27T10:05:12.968Z,7.10
2022-11-27T10:08:24.860Z,7.06
2022-11-27T10:11:37.803Z,7.11
2022-11-27T10:15:00.307Z,7.19
2022-11-27T10:18:13.887Z,7.26
2022-11-27T10:21:26.293Z,7.39
2022-11-27T10:24:40.005Z,7.46
2022-11-27T10:27:57.641Z,7.42
2022-11-27T10:31:04.436Z,7.50
2022-11-27T10:34:21.196Z,7.63
2022-11-27T10:37:42.733Z,7.50
2022-11-27T10:40:53.778Z,7.56
2022-11-27T10:43:59.158Z,7.64
2022-11-27T10:47:04.406Z,7.60
2022-11-27T10:50:14.822Z,7.67
2022-11-27T10:53:19.716Z,7.75
2022-11-27T10:56:56.957Z,7.80
2022-11-27T11:00:11.106Z,7.87
2022-11-27T11:03:19.403Z,7.97
2022-11-27T11:06:26.699Z,8.12
2022-11-27T11:09:34.963Z,8.11
2022-11-27T11:12:37.264Z,8.18
2022-11-27T11:15:57.691Z,8.24
2022-11-27T11:19:01.674Z,8.27
2022-11-27T11:22:16.730Z,8.27
2022-11-27T11:25:20.343Z,8.40
2022-11-27T11:28:22.925Z,8.43
2022-11-27T11:31:39.298Z,8.55
2022-11-27T11:34:47.682Z,8.54
2022-11-27T11:37:49.698Z,8.51
2022-11-27T11:41:07.096Z,8.54
2022-11-27T11:44:23.217Z,8.60
2022-11-27T11:47:26.837Z,8.67
2022-11-27T11:50:41.272Z,8.71
2022-11-27T11:53:47.190Z,8.84
2022-11-27T11:56:52.860Z,8.76
2022-11-27T12:00:07.136Z,8.85
2022-11-27T12:03:34.734Z,8.88
2022-11-27T12:07:12.316Z,8.70
2022-11-27T12:10:39.151Z,8.72
2022-11-27T12:13:48.739Z,8.83
2022-11-27T12:17:17.697Z,8.96
2022-11-27T12:20:50.644Z,8.98
2022-11-27T12:24:12.860Z,8.97
2022-11-27T12:27:20.687Z,8.85
2022-11-27T12:30:26.745Z,8.72
2022-11-27T12:33:40.887Z,8.83
2022-11-27T12:37:18.932Z,8.65
2022-11-27T12:40:42.684Z,8.62
2022-11-27T12:43:48.649Z,8.62
2022-11-27T12:46:59.652Z,8.68
2022-11-27T12:50:14.596Z,8.31
2022-11-27T12:53:52.049Z,8.43
2022-11-27T12:56:57.901Z,8.24
2022-11-27T13:00:06.422Z,8.25
2022-11-27T13:03:22.287Z,8.23
2022-11-27T13:06:24.906Z,8.03
2022-11-27T13:09:37.011Z,7.86
2022-11-27T13:12:50.865Z,7.82
2022-11-27T13:15:56.914Z,7.73
2022-11-27T13:19:16.185Z,7.56
2022-11-27T13:22:29.951Z,7.46
2022-11-27T13:25:34.936Z,7.38
2022-11-27T13:28:53.284Z,7.37
2022-11-27T13:31:57.593Z,7.32
2022-11-27T13:35:03.328Z,7.28
2022-11-27T13:38:25.418Z,7.27
2022-11-27T13:41:34.274Z,7.18
2022-11-27T13:44:40.286Z,7.20
2022-11-27T13:47:44.004Z,7.19
2022-11-27T13:50:46.243Z,7.12
2022-11-27T13:53:48.159Z,7.12
2022-11-27T13:56:50.023Z,7.16
2022-11-27T14:00:05.884Z,7.14
2022-11-27T14:03:24.572Z,7.13
2022-11-27T14:06:29.251Z,7.12
2022-11-27T14:09:47.139Z,7.12
2022-11-27T14:12:57.318Z,7.02
2022-11-27T14:16:02.363Z,6.98
2022-11-27T14:19:06.894Z,7.06
2022-11-27T14:23:07.145Z,7.05
2022-11-27T14:26:25.136Z,7.06
2022-11-27T14:29:31.020Z,7.09
2022-11-27T14:32:35.696Z,7.14
2022-11-27T14:35:37.722Z,7.12
2022-11-27T14:38:40.242Z,7.00
2022-11-27T14:41:42.079Z,6.99
2022-11-27T14:44:43.969Z,7.04
2022-11-27T14:47:53.064Z,7.07
2022-11-27T14:50:56.208Z,7.03
2022-11-27T14:54:03.046Z,6.99
2022-11-27T14:57:06.167Z,6.98
2022-11-27T15:00:17.676Z,6.93
2022-11-27T15:03:20.848Z,6.86
2022-11-27T15:06:23.286Z,6.79
2022-11-27T15:09:32.301Z,6.76
2022-11-27T15:12:38.460Z,6.69
2022-11-27T15:15:44.079Z,6.58
2022-11-27T15:18:58.194Z,6.44
2022-11-27T15:22:00.399Z,6.37
2022-11-27T15:25:05.653Z,6.13
2022-11-27T15:28:50.142Z,5.94
2022-11-27T15:31:53.027Z,5.90
2022-11-27T15:34:55.623Z,5.87
2022-11-27T15:38:05.678Z,5.77
2022-11-27T15:41:28.864Z,5.73
2022-11-27T15:44:32.931Z,5.83
2022-11-27T15:47:37.139Z,5.82
2022-11-27T15:50:39.432Z,5.86
2022-11-27T15:53:41.695Z,5.79
2022-11-27T15:56:43.843Z,5.66
2022-11-27T15:59:46.085Z,5.29
2022-11-27T16:02:48.611Z,5.36
2022-11-27T16:05:51.259Z,4.86
2022-11-27T16:09:01.229Z,4.84
2022-11-27T16:12:03.734Z,4.68
2022-11-27T16:15:09.968Z,4.58
2022-11-27T16:18:12.184Z,4.32
2022-11-27T16:21:16.233Z,4.22
2022-11-27T16:24:18.822Z,4.52
2022-11-27T16:27:21.744Z,4.53
2022-11-27T16:30:26.472Z,4.29
2022-11-27T16:33:30.614Z,4.34
2022-11-27T16:36:33.465Z,4.20
2022-11-27T16:39:36.039Z,4.27
2022-11-27T16:42:38.803Z,4.38
2022-11-27T16:45:41.605Z,4.31
2022-11-27T16:48:45.434Z,4.32
2022-11-27T16:51:49.182Z,4.30
2022-11-27T16:54:55.512Z,4.25
2022-11-27T16:57:59.113Z,4.18
2022-11-27T17:01:13.460Z,4.30
2022-11-27T17:04:19.666Z,4.30
2022-11-27T17:07:22.603Z,4.34
2022-11-27T17:10:25.225Z,4.34
2022-11-27T17:13:27.654Z,4.35
2022-11-27T17:16:29.960Z,4.32
2022-11-27T17:19:34.594Z,4.38
2022-11-27T17:22:37.394Z,4.49
2022-11-27T17:25:42.025Z,4.36
2022-11-27T17:28:46.653Z,4.29
2022-11-27T17:31:50.963Z,4.08
2022-11-27T17:34:53.523Z,4.11
2022-11-27T17:37:56.574Z,4.17
2022-11-27T17:41:09.145Z,4.36
2022-11-27T17:44:11.394Z,4.40
2022-11-27T17:47:13.530Z,4.47
2022-11-27T17:50:15.589Z,4.64
2022-11-27T17:53:19.620Z,4.65
2022-11-27T17:56:22.285Z,4.57
2022-11-27T17:59:24.786Z,4.51
2022-11-27T18:02:27.248Z,4.60
2022-11-27T18:05:29.640Z,4.64
2022-11-27T18:08:33.054Z,4.81
2022-11-27T18:11:35.469Z,4.84
2022-11-27T18:14:37.877Z,4.96
2022-11-27T18:17:40.791Z,4.93
2022-11-27T18:20:44.355Z,4.93
2022-11-27T18:27:15.654Z,4.86
2022-11-27T18:30:18.059Z,4.95
2022-11-27T18:33:20.426Z,5.03
2022-11-27T18:36:23.289Z,5.15
2022-11-27T18:39:26.864Z,5.12
2022-11-27T18:42:30.925Z,5.06
2022-11-27T18:45:33.316Z,5.16
2022-11-27T18:48:39.566Z,5.04
2022-11-27T18:51:41.912Z,5.05
2022-11-27T18:54:44.557Z,5.03
2022-11-27T18:57:47.981Z,4.98
2022-11-27T19:00:51.738Z,4.98
2022-11-27T19:03:55.032Z,4.91
2022-11-27T19:06:58.453Z,4.89
2022-11-27T19:10:06.178Z,4.79
2022-11-27T19:13:09.047Z,4.75
2022-11-27T19:16:22.964Z,4.75
2022-11-27T19:22:50.883Z,4.88
2022-11-27T19:25:55.983Z,4.93
2022-11-27T19:29:08.494Z,4.90
2022-11-27T19:32:23.293Z,4.92
2022-11-27T19:35:27.515Z,4.84
2022-11-27T19:38:34.395Z,4.83
2022-11-27T19:41:41.669Z,4.91
2022-11-27T19:44:46.265Z,5.02
2022-11-27T19:47:50.244Z,5.05
2022-11-27T19:50:53.403Z,5.12
2022-11-27T19:53:56.091Z,5.02
2022-11-27T19:56:59.056Z,5.08
2022-11-27T20:00:01.277Z,5.09
2022-11-27T20:03:04.739Z,5.10
2022-11-27T20:06:10.507Z,5.07
2022-11-27T20:09:14.238Z,5.14
2022-11-27T20:12:16.546Z,5.24
2022-11-27T20:15:19.346Z,5.19
2022-11-27T20:18:22.963Z,5.00
2022-11-27T20:21:26.025Z,5.02
2022-11-27T20:24:28.586Z,5.09
2022-11-27T20:27:32.330Z,5.14
2022-11-27T20:30:38.374Z,5.19
2022-11-27T20:33:41.257Z,5.14
2022-11-27T20:36:44.251Z,5.10
2022-11-27T20:39:49.324Z,5.02
2022-11-27T20:42:52.565Z,4.97
2022-11-27T20:45:55.200Z,4.97
2022-11-27T20:49:05.704Z,4.95
2022-11-27T20:52:11.830Z,5.04
2022-11-27T20:55:14.254Z,4.97
2022-11-27T20:58:17.753Z,4.90
2022-11-27T21:01:22.741Z,4.90
2022-11-27T21:04:26.706Z,5.00
2022-11-27T21:07:29.592Z,5.00
2022-11-27T21:10:32.386Z,4.91
2022-11-27T21:13:34.489Z,4.88
2022-11-27T21:16:42.353Z,4.88
2022-11-27T21:19:45.207Z,4.85
2022-11-27T21:22:48.008Z,4.89
2022-11-27T21:25:50.551Z,4.89
2022-11-27T21:28:53.054Z,4.87
2022-11-27T21:31:55.769Z,4.91
2022-11-27T21:34:59.388Z,4.82
2022-11-27T21:38:02.299Z,4.83
2022-11-27T21:41:05.180Z,4.90
2022-11-27T21:44:07.171Z,4.71
2022-11-27T21:47:12.353Z,4.69
2022-11-27T21:50:15.367Z,4.85
2022-11-27T21:53:17.828Z,4.92
2022-11-27T21:56:22.759Z,5.04
2022-11-27T21:59:24.852Z,4.81
2022-11-27T22:02:27.432Z,4.83
2022-11-27T22:05:30.297Z,4.39
2022-11-27T22:11:52.593Z,4.16
2022-11-27T22:14:55.332Z,4.44
2022-11-27T22:17:57.731Z,4.42
2022-11-27T22:21:07.034Z,4.38
2022-11-27T22:24:19.472Z,4.50
2022-11-27T22:27:26.367Z,4.56
2022-11-27T22:30:31.201Z,4.45
2022-11-27T22:33:35.859Z,4.21
2022-11-27T22:36:38.070Z,3.90
2022-11-27T22:39:39.944Z,3.84
2022-11-27T22:42:42.060Z,3.83
2022-11-27T22:45:48.113Z,4.10
2022-11-27T22:48:58.472Z,3.89
2022-11-27T22:52:00.366Z,3.68
2022-11-27T22:55:03.890Z,3.56
2022-11-27T22:58:05.637Z,3.58
2022-11-27T23:01:19.027Z,3.63
2022-11-27T23:04:23.250Z,3.66
2022-11-27T23:07:25.597Z,3.76
2022-11-27T23:10:27.721Z,3.63
2022-11-27T23:13:46.356Z,3.54
2022-11-27T23:16:51.259Z,3.36
2022-11-27T23:19:53.161Z,3.33
2022-11-27T23:22:55.112Z,3.26
2022-11-27T23:26:02.816Z,3.13
2022-11-27T23:29:05.341Z,3.16
2022-11-27T23:32:07.436Z,3.06
2022-11-27T23:35:10.110Z,2.95
2022-11-27T23:38:12.271Z,3.03
2022-11-27T23:41:25.413Z,2.87
2022-11-27T23:44:27.306Z,2.80
2022-11-27T23:47:30.478Z,3.04
2022-11-27T23:50:32.354Z,3.11
2022-11-27T23:53:34.303Z,3.02
2022-11-27T23:56:37.379Z,3.15
2022-11-27T23:59:46.006Z,3.27
